Time;durP1;ratioP1;P1;durP2;ratioP2;P2;SDS_P1;SDS_P2;PMS_P1;PMS_P2;Temp;Humidity;BMP_temperature;BMP_pressure;BME280_temperature;BME280_humidity;BME280_pressure;Samples;Min_cycle;Max_cycle;Signal;HPM_P1;HPM_P2
2022/04/26 03:37:05;;;;;;;;;27.00;21.50;;;;;8.79;71.38;100764.91;5098390;27;45421;-79
2022/04/26 03:39:33;;;;;;;;;30.25;24.50;;;;;8.77;70.71;100762.28;5098480;27;45389;-77
2022/04/26 03:42:02;;;;;;;;;29.50;19.00;;;;;8.79;70.66;100754.38;5096663;27;46083;-76
2022/04/26 03:44:29;;;;;;;;;31.00;28.25;;;;;8.80;71.20;100759.63;5095685;27;45466;-78
2022/04/26 03:46:54;;;;;;;;;23.50;18.50;;;;;8.78;71.57;100747.38;5096887;27;45402;-77
2022/04/26 03:49:21;;;;;;;;;23.00;21.75;;;;;8.78;70.78;100761.41;5096664;27;45291;-77
2022/04/26 03:51:46;;;;;;;;;21.50;21.50;;;;;8.76;71.47;100757.03;5095912;27;46246;-76
2022/04/26 03:54:12;;;;;;;;;32.00;26.75;;;;;8.70;71.39;100761.50;5108906;27;45347;-77
2022/04/26 03:56:37;;;;;;;;;26.25;17.50;;;;;8.71;71.66;100757.97;5098610;27;45442;-77
2022/04/26 03:59:02;;;;;;;;;25.50;16.00;;;;;8.69;71.95;100765.00;5095892;27;45464;-77
2022/04/26 04:01:28;;;;;;;;;26.25;16.50;;;;;8.68;71.81;100768.56;5097341;27;45442;-76
2022/04/26 04:03:53;;;;;;;;;33.00;29.75;;;;;8.63;71.79;100759.78;5079511;27;45421;-77
2022/04/26 04:06:19;;;;;;;;;27.50;20.75;;;;;8.60;72.15;100762.47;5103297;27;45498;-76
2022/04/26 04:08:44;;;;;;;;;37.75;24.25;;;;;8.58;72.05;100761.59;5099791;27;45389;-77
2022/04/26 04:11:09;;;;;;;;;37.50;32.00;;;;;8.60;71.76;100766.88;5097250;27;46599;-77
2022/04/26 04:13:35;;;;;;;;;31.25;28.00;;;;;8.58;71.98;100761.59;5085349;27;45509;-77
2022/04/26 04:16:00;;;;;;;;;32.50;24.50;;;;;8.59;72.33;100763.34;5075744;28;45535;-77
2022/04/26 04:21:10;;;;;;;;;37.25;25.75;;;;;8.52;72.28;100766.94;5075597;28;45877;-77
2022/04/26 04:23:36;;;;;;;;;28.75;21.75;;;;;8.52;72.34;100782.75;5094537;27;45536;-77
2022/04/26 04:26:02;;;;;;;;;38.25;28.75;;;;;8.44;72.78;100779.28;5077250;27;45415;-76
2022/04/26 04:28:27;;;;;;;;;27.00;24.25;;;;;8.47;73.21;100787.16;5096871;27;45284;-77
2022/04/26 04:30:52;;;;;;;;;31.00;27.25;;;;;8.47;72.60;100789.78;5114948;27;45927;-77
2022/04/26 04:33:18;;;;;;;;;21.25;12.00;;;;;8.48;72.70;100791.53;5099493;27;45535;-77
2022/04/26 04:35:43;;;;;;;;;30.75;26.00;;;;;8.49;72.99;100790.66;5099018;27;45394;-77
2022/04/26 04:38:08;;;;;;;;;32.75;26.00;;;;;8.49;72.67;100793.31;5100902;27;45557;-77
2022/04/26 04:40:34;;;;;;;;;9.50;6.75;;;;;8.56;72.48;100805.50;5111556;27;46582;-76
2022/04/26 04:43:00;;;;;;;;;29.00;21.75;;;;;8.56;73.04;100810.78;5083783;27;45475;-77
2022/04/26 04:45:25;;;;;;;;;36.75;27.50;;;;;8.58;72.62;100809.03;5095697;27;45542;-77
2022/04/26 04:47:50;;;;;;;;;25.75;21.50;;;;;8.55;72.37;100798.53;5095879;27;45404;-77
2022/04/26 04:50:16;;;;;;;;;37.25;28.00;;;;;8.59;72.32;100810.75;5095042;27;46180;-77
2022/04/26 04:52:41;;;;;;;;;29.00;24.00;;;;;8.55;72.91;100801.16;5095415;27;45500;-77
2022/04/26 04:55:07;;;;;;;;;29.00;18.50;;;;;8.52;72.51;100811.72;5108762;27;45539;-77
2022/04/26 04:57:32;;;;;;;;;38.50;35.25;;;;;8.55;72.70;100819.59;5115839;27;45415;-77
2022/04/26 04:59:59;;;;;;;;;36.50;31.50;;;;;8.59;73.26;100821.31;5116112;27;45347;-77
2022/04/26 05:02:25;;;;;;;;;38.50;30.50;;;;;8.65;73.53;100826.53;5106683;27;45418;-77
2022/04/26 05:04:50;;;;;;;;;36.00;31.75;;;;;8.68;73.12;100825.63;5096032;27;45503;-77
2022/04/26 05:07:15;;;;;;;;;51.50;37.50;;;;;8.68;72.41;100821.25;5099883;27;45304;-77
2022/04/26 05:09:41;;;;;;;;;35.00;30.00;;;;;8.68;72.52;100820.38;5096660;27;45667;-77
2022/04/26 05:12:07;;;;;;;;;32.00;29.00;;;;;8.76;72.03;100822.94;5094925;27;45370;-77
2022/04/26 05:14:32;;;;;;;;;42.50;32.75;;;;;8.82;72.40;100834.31;5095711;27;45423;-77
2022/04/26 05:16:58;;;;;;;;;29.50;23.00;;;;;8.87;72.28;100836.91;5094717;27;45597;-77
2022/04/26 05:19:23;;;;;;;;;39.25;38.50;;;;;8.87;72.28;100836.91;5094002;27;55607;-77
2022/04/26 05:21:48;;;;;;;;;29.50;26.50;;;;;8.91;72.05;100841.25;5079468;27;45627;-76
2022/04/26 05:26:58;;;;;;;;;35.00;29.50;;;;;8.89;71.78;100841.25;5115481;27;45465;-78
2022/04/26 05:29:23;;;;;;;;;42.50;36.00;;;;;8.94;71.51;100854.41;5103325;27;45407;-77
2022/04/26 05:31:49;;;;;;;;;41.50;34.75;;;;;8.89;72.25;100856.22;5094356;27;45470;-77
2022/04/26 05:34:14;;;;;;;;;40.25;31.00;;;;;8.87;71.76;100855.34;5095122;27;45425;-76
2022/04/26 05:36:40;;;;;;;;;39.50;31.50;;;;;8.93;72.12;100862.31;5097596;27;45378;-77
2022/04/26 05:39:05;;;;;;;;;41.50;37.25;;;;;8.92;71.98;100873.78;5100303;27;46160;-77
2022/04/26 05:41:30;;;;;;;;;41.75;30.75;;;;;8.81;72.37;100855.41;5115442;27;45723;-77
2022/04/26 05:43:56;;;;;;;;;33.75;26.00;;;;;8.92;72.28;100874.63;5094597;27;45488;-77
2022/04/26 05:46:21;;;;;;;;;43.50;37.50;;;;;8.89;72.17;100861.47;5096301;27;45555;-78
2022/04/26 05:48:47;;;;;;;;;48.25;38.75;;;;;8.99;73.72;100868.44;5093945;27;46035;-78
2022/04/26 05:51:12;;;;;;;;;49.25;37.00;;;;;9.07;72.26;100876.28;5094096;27;45562;-76
2022/04/26 05:53:37;;;;;;;;;50.00;36.50;;;;;9.05;72.72;100885.97;5094616;27;45837;-78
2022/04/26 05:56:05;;;;;;;;;50.25;42.25;;;;;8.98;72.19;100882.50;5094591;27;45346;-76
2022/04/26 05:58:31;;;;;;;;;34.50;27.50;;;;;8.97;72.59;100891.28;5093780;27;46232;-77
2022/04/26 06:00:56;;;;;;;;;58.75;48.00;;;;;9.01;72.51;100890.38;5093773;27;45347;-76
2022/04/26 06:03:22;;;;;;;;;61.25;49.00;;;;;9.05;72.04;100884.19;5096125;27;45383;-77
2022/04/26 06:05:47;;;;;;;;;57.00;38.75;;;;;9.07;72.18;100884.19;5098731;27;45379;-80
2022/04/26 06:08:12;;;;;;;;;38.25;33.25;;;;;9.04;71.94;100885.06;5081236;28;45567;-80
2022/04/26 06:10:42;;;;;;;;;52.00;43.00;;;;;9.05;71.74;100889.47;5074013;28;45386;-80
2022/04/26 06:13:10;;;;;;;;;39.25;31.00;;;;;9.06;71.90;100896.50;5090580;27;45374;-76
2022/04/26 06:15:36;;;;;;;;;37.50;31.50;;;;;9.12;71.75;100889.41;5065981;27;45556;-76
2022/04/26 06:18:01;;;;;;;;;40.50;38.25;;;;;9.24;71.63;100887.53;5094425;27;46297;-78
2022/04/26 06:20:26;;;;;;;;;55.75;45.00;;;;;9.28;70.86;100872.56;5075474;27;45434;-81
2022/04/26 06:22:53;;;;;;;;;39.25;36.25;;;;;9.48;70.53;100882.03;5094840;27;45398;-80
2022/04/26 06:25:19;;;;;;;;;41.75;34.25;;;;;9.72;69.87;100876.47;5075041;27;45644;-82
2022/04/26 06:27:44;;;;;;;;;41.25;35.75;;;;;10.09;69.03;100883.94;5093898;27;45472;-81
2022/04/26 06:30:10;;;;;;;;;44.00;38.25;;;;;10.32;67.69;100882.75;5110335;27;45517;-79
2022/04/26 06:32:36;;;;;;;;;47.00;43.50;;;;;10.57;67.00;100878.03;5085190;27;45482;-81
2022/04/26 06:35:02;;;;;;;;;41.75;36.25;;;;;10.97;65.77;100889.72;5095549;27;45485;-81
2022/04/26 06:37:27;;;;;;;;;42.00;31.50;;;;;11.15;65.03;100892.06;5106779;27;45393;-75
2022/04/26 06:39:53;;;;;;;;;46.75;35.75;;;;;11.40;64.60;100885.47;5095094;27;45393;-77
2022/04/26 06:42:18;;;;;;;;;41.50;33.75;;;;;11.84;63.36;100879.31;5075197;27;45552;-77
2022/04/26 06:44:44;;;;;;;;;57.00;46.50;;;;;12.59;60.38;100890.06;5093961;27;45467;-77
2022/04/26 06:47:09;;;;;;;;;49.75;43.50;;;;;12.80;59.77;100898.44;5093609;27;45606;-77
2022/04/26 06:49:34;;;;;;;;;60.75;42.50;;;;;12.95;58.97;100890.09;5094364;27;45415;-78
2022/04/26 06:52:00;;;;;;;;;40.50;35.50;;;;;12.98;58.87;100900.63;5094273;27;45351;-77
2022/04/26 06:54:25;;;;;;;;;49.75;43.50;;;;;12.73;58.77;100888.88;5093936;27;45410;-78
2022/04/26 06:56:50;;;;;;;;;44.25;42.50;;;;;12.70;59.06;100895.13;5093195;27;45378;-77
2022/04/26 06:59:16;;;;;;;;;46.25;41.00;;;;;13.23;58.36;100899.16;5093625;27;45382;-77
2022/04/26 07:01:41;;;;;;;;;42.50;39.75;;;;;13.93;56.35;100892.84;5093815;27;45379;-78
2022/04/26 07:04:08;;;;;;;;;60.00;48.75;;;;;14.67;54.52;100888.00;5094258;27;45751;-77
2022/04/26 07:06:33;;;;;;;;;56.50;45.25;;;;;15.04;53.13;100902.75;5095910;27;45726;-79
2022/04/26 07:08:59;;;;;;;;;60.50;45.00;;;;;14.77;52.36;100888.53;5099811;27;45331;-79
2022/04/26 07:11:25;;;;;;;;;51.00;40.00;;;;;14.94;52.86;100902.19;5095502;27;45453;-79
2022/04/26 07:13:52;;;;;;;;;38.75;33.75;;;;;15.60;51.60;100912.34;5095046;27;45674;-79
2022/04/26 07:16:18;;;;;;;;;46.75;42.25;;;;;15.63;50.62;100906.91;5093594;27;46204;-78
2022/04/26 07:18:43;;;;;;;;;51.50;37.00;;;;;15.88;50.25;100906.94;5095958;27;45348;-79
2022/04/26 07:21:09;;;;;;;;;54.00;44.25;;;;;16.17;49.31;100908.50;5097012;27;45325;-80
2022/04/26 07:23:34;;;;;;;;;62.50;43.50;;;;;15.93;48.88;100906.78;5097994;27;45481;-80
2022/04/26 07:26:00;;;;;;;;;60.75;42.25;;;;;15.64;49.59;100908.66;5097288;27;45353;-79
2022/04/26 07:28:25;;;;;;;;;60.75;47.00;;;;;15.31;50.15;100911.59;5097777;27;45442;-79
2022/04/26 07:30:50;;;;;;;;;56.25;44.25;;;;;15.19;50.15;100918.19;5097296;27;45328;-80
2022/04/26 07:36:00;;;;;;;;;55.25;43.00;;;;;15.10;50.97;100924.69;5080819;27;45395;-79
2022/04/26 07:38:25;;;;;;;;;48.75;39.75;;;;;15.52;49.80;100922.44;5081417;28;45625;-79
2022/04/26 07:40:51;;;;;;;;;43.25;37.50;;;;;16.60;48.03;100926.44;5076843;28;45471;-79
2022/04/26 07:43:17;;;;;;;;;53.00;41.25;;;;;17.35;46.08;100920.69;5076846;28;45344;-79
2022/04/26 07:45:44;;;;;;;;;46.75;41.00;;;;;17.43;45.26;100915.06;5076832;28;46137;-79
2022/04/26 07:48:10;;;;;;;;;65.25;49.50;;;;;17.64;44.99;100915.03;5076829;28;45343;-80
2022/04/26 07:50:36;;;;;;;;;45.75;39.50;;;;;17.71;44.57;100921.84;5076194;28;45448;-79
2022/04/26 07:53:03;;;;;;;;;42.50;36.25;;;;;17.89;44.44;100931.75;5076269;28;45530;-78
2022/04/26 07:55:29;;;;;;;;;49.50;40.00;;;;;17.68;44.74;100930.84;5075396;28;45672;-80
2022/04/26 07:57:55;;;;;;;;;54.00;45.00;;;;;17.35;45.02;100933.19;5076598;28;45410;-78
2022/04/26 08:00:20;;;;;;;;;37.00;32.00;;;;;16.95;45.74;100943.75;5076288;28;45498;-79
2022/04/26 08:02:46;;;;;;;;;48.00;37.25;;;;;16.62;46.11;100943.25;5076980;28;45403;-79
2022/04/26 08:05:14;;;;;;;;;50.25;45.50;;;;;16.34;46.60;100947.88;5078063;28;47419;-80
2022/04/26 08:07:41;;;;;;;;;36.75;26.00;;;;;16.19;47.15;100948.44;5060674;28;45501;-77
2022/04/26 08:10:12;;;;;;;;;48.25;33.00;;;;;16.05;47.47;100962.28;5076675;28;45530;-79
2022/04/26 08:12:42;;;;;;;;;46.25;37.00;;;;;16.04;48.08;100957.03;5076634;28;45446;-79
2022/04/26 08:15:10;;;;;;;;;48.75;43.75;;;;;16.84;47.17;100961.97;5076392;28;46412;-79
2022/04/26 08:17:35;;;;;;;;;47.25;35.75;;;;;17.62;44.85;100962.34;5075920;28;45506;-76
2022/04/26 08:20:01;;;;;;;;;52.25;41.50;;;;;18.40;43.29;100949.94;5075742;28;45340;-77
2022/04/26 08:22:26;;;;;;;;;54.75;43.25;;;;;18.85;42.29;100950.53;5075817;28;45383;-77
2022/04/26 08:27:36;;;;;;;;;36.25;29.25;;;;;20.04;39.52;100961.47;5075458;28;45963;-77
2022/04/26 08:30:04;;;;;;;;;43.00;38.00;;;;;20.31;39.22;100959.13;5074452;28;45366;-77
2022/04/26 08:32:43;;;;;;;;;44.25;38.50;;;;;20.69;38.60;100958.84;5076271;28;45437;-78
2022/04/26 08:35:11;;;;;;;;;52.75;42.25;;;;;20.48;37.71;100955.53;5089652;27;46868;-80
2022/04/26 08:37:37;;;;;;;;;48.00;37.75;;;;;20.29;37.94;100960.16;5102340;27;45428;-79
2022/04/26 08:40:05;;;;;;;;;43.00;30.25;;;;;19.99;38.16;100964.41;5100128;27;45418;-79
2022/04/26 08:42:43;;;;;;;;;47.00;37.00;;;;;19.15;39.43;100961.56;5096745;27;45465;-79
2022/04/26 08:45:11;;;;;;;;;45.25;35.25;;;;;18.85;40.18;100970.16;5095937;27;46323;-78
2022/04/26 08:53:08;;;;;;;;;46.00;39.50;;;;;17.95;42.20;100976.06;5095320;27;45419;-79
2022/04/26 08:55:41;;;;;;;;;41.75;31.50;;;;;17.53;42.33;100983.16;5095499;27;45460;-80
2022/04/26 08:58:08;;;;;;;;;48.50;42.25;;;;;17.30;43.21;100991.28;5095464;27;45431;-78
2022/04/26 09:00:34;;;;;;;;;40.25;34.25;;;;;16.99;43.24;100998.75;5095669;27;45562;-77
2022/04/26 09:03:01;;;;;;;;;43.00;36.25;;;;;16.64;44.41;100997.41;5096151;27;45543;-80
2022/04/26 09:05:27;;;;;;;;;43.50;40.25;;;;;16.34;45.19;100993.19;5095732;27;47070;-78
2022/04/26 09:07:52;;;;;;;;;58.25;42.50;;;;;16.28;45.47;101008.56;5101263;27;45416;-79
2022/04/26 09:10:20;;;;;;;;;49.50;38.25;;;;;16.94;44.29;101005.19;5099053;27;45509;-80
2022/04/26 09:13:09;;;;;;;;;51.25;35.00;;;;;16.93;43.96;101011.47;5095972;27;45532;-80
2022/04/26 09:15:38;;;;;;;;;50.50;40.75;;;;;16.70;44.51;101019.44;5095850;27;45939;-79
2022/04/26 09:18:15;;;;;;;;;43.75;33.75;;;;;16.34;45.13;101021.69;5096348;27;45410;-80
2022/04/26 09:20:41;;;;;;;;;43.50;35.75;;;;;16.43;45.55;101020.47;5096223;27;45479;-77
2022/04/26 09:23:42;;;;;;;;;52.50;39.00;;;;;17.19;44.05;101032.66;5094902;27;45483;-78
2022/04/26 09:26:11;;;;;;;;;38.25;33.75;;;;;18.07;41.68;101020.13;5091047;27;45466;-78
2022/04/26 09:28:39;;;;;;;;;54.50;43.25;;;;;18.64;40.46;101009.50;5095649;27;45448;-77
2022/04/26 09:31:17;;;;;;;;;46.75;35.75;;;;;19.33;39.47;101019.59;5095888;27;45495;-78
2022/04/26 09:33:47;;;;;;;;;31.25;24.25;;;;;19.11;39.06;101026.94;5095017;27;45536;-78
2022/04/26 09:36:13;;;;;;;;;42.50;33.75;;;;;18.98;39.43;101024.84;5095271;27;45426;-78
2022/04/26 09:38:41;;;;;;;;;36.00;31.25;;;;;18.71;39.96;101024.31;5099026;27;45382;-79
2022/04/26 09:41:11;;;;;;;;;59.00;44.25;;;;;18.43;40.56;101025.63;5096183;27;45529;-78
2022/04/26 09:43:38;;;;;;;;;49.00;38.50;;;;;18.01;41.17;101028.41;5095029;27;45366;-77
2022/04/26 09:46:04;;;;;;;;;52.75;41.00;;;;;17.59;42.28;101027.47;5095129;27;45344;-78
2022/04/26 09:48:35;;;;;;;;;47.25;39.75;;;;;17.21;43.04;101037.94;5094232;27;45434;-78
2022/04/26 09:51:02;;;;;;;;;48.75;42.00;;;;;16.73;44.12;101033.56;5094466;27;45389;-78
2022/04/26 09:53:29;;;;;;;;;47.25;38.00;;;;;16.39;45.00;101045.53;5094790;27;45469;-79
2022/04/26 09:55:56;;;;;;;;;48.50;36.75;;;;;16.01;45.87;101024.63;5094191;27;45424;-78
2022/04/26 09:58:23;;;;;;;;;32.50;32.50;;;;;15.63;46.08;101040.13;5094797;27;45381;-78
2022/04/26 10:00:51;;;;;;;;;44.50;39.00;;;;;15.44;46.78;101050.50;5076401;27;45419;-78
2022/04/26 10:03:21;;;;;;;;;42.50;36.25;;;;;15.12;46.69;101051.56;5076934;27;45470;-78
2022/04/26 10:05:49;;;;;;;;;46.25;38.00;;;;;15.05;47.65;101058.88;5075706;27;46029;-78
2022/04/26 10:08:17;;;;;;;;;41.25;26.25;;;;;14.95;47.98;101052.09;5096606;27;45435;-77
2022/04/26 10:10:43;;;;;;;;;45.00;41.50;;;;;14.89;48.49;101047.81;5080944;27;45346;-78
2022/04/26 10:15:55;;;;;;;;;54.25;41.00;;;;;14.77;49.45;101053.50;5094876;27;45527;-77
2022/04/26 10:18:38;;;;;;;;;60.50;47.00;;;;;14.84;49.20;101052.41;5094864;27;45378;-77
2022/04/26 10:21:04;;;;;;;;;55.25;41.75;;;;;14.75;49.31;101051.75;5093996;27;45503;-77
2022/04/26 10:24:03;;;;;;;;;50.00;37.75;;;;;14.68;48.97;101058.19;5095112;27;45471;-76
2022/04/26 10:26:32;;;;;;;;;44.00;32.75;;;;;14.67;49.50;101067.09;5094538;27;45481;-78
2022/04/26 10:28:59;;;;;;;;;48.75;40.00;;;;;14.71;49.44;101066.09;5094373;27;45353;-77
2022/04/26 10:31:47;;;;;;;;;46.00;36.25;;;;;14.92;49.70;101066.34;5094489;27;45506;-78
2022/04/26 10:34:24;;;;;;;;;42.25;31.25;;;;;15.16;48.56;101072.72;5094286;27;45363;-78
2022/04/26 10:37:11;;;;;;;;;53.00;44.50;;;;;15.55;47.22;101069.69;5094324;27;45418;-78
2022/04/26 10:39:45;;;;;;;;;43.00;36.25;;;;;16.31;46.02;101067.13;5084678;27;45607;-78
2022/04/26 10:42:26;;;;;;;;;27.25;21.75;;;;;17.14;44.52;101066.72;5076448;27;45439;-78
2022/04/26 10:44:57;;;;;;;;;55.75;47.00;;;;;17.21;43.23;101070.84;5095254;27;45570;-80
2022/04/26 10:47:24;;;;;;;;;45.25;32.25;;;;;17.67;42.16;101070.81;5079572;27;47599;-80
2022/04/26 10:49:51;;;;;;;;;44.75;37.25;;;;;18.29;40.98;101069.06;5080923;27;45327;-80
2022/04/26 10:52:23;;;;;;;;;40.25;35.25;;;;;18.75;39.31;101070.56;5098297;27;45409;-79
2022/04/26 10:54:51;;;;;;;;;34.50;30.00;;;;;18.53;39.62;101050.13;5098305;27;45617;-78
2022/04/26 10:57:30;;;;;;;;;39.50;32.75;;;;;18.14;39.83;101058.16;5096944;27;46203;-78
2022/04/26 10:59:59;;;;;;;;;42.50;36.25;;;;;18.06;40.50;101056.66;5097753;27;45559;-78
2022/04/26 11:02:26;;;;;;;;;47.00;37.50;;;;;18.19;40.71;101062.38;5079096;27;45525;-78
2022/04/26 11:04:56;;;;;;;;;38.00;32.75;;;;;18.05;40.55;101060.31;5097305;27;45422;-79
2022/04/26 11:07:25;;;;;;;;;51.75;40.75;;;;;17.83;41.39;101067.47;5097688;27;47005;-78
2022/04/26 11:09:53;;;;;;;;;54.50;38.00;;;;;17.53;41.73;101058.00;5101647;27;45433;-78
2022/04/26 11:15:04;;;;;;;;;48.00;39.00;;;;;17.66;40.98;101053.00;5236422;22;45812;-80
2022/04/26 11:17:29;;;;;;;;;36.25;33.50;;;;;17.80;41.06;101054.25;5095002;27;45442;-80
2022/04/26 11:19:58;;;;;;;;;44.50;34.25;;;;;17.97;40.52;101056.22;5097246;27;45317;-80
2022/04/26 11:22:25;;;;;;;;;40.50;33.75;;;;;17.86;40.40;101048.63;5097421;27;45434;-79
2022/04/26 11:28:00;;;;;;;;;51.00;30.50;;;;;18.27;40.28;101051.31;5097085;27;45787;-79
2022/04/26 11:30:31;;;;;;;;;41.00;36.25;;;;;18.43;40.36;101054.16;5097054;27;45385;-80
2022/04/26 11:33:01;;;;;;;;;43.75;34.50;;;;;18.28;39.94;101050.38;5097196;27;45386;-80
2022/04/26 11:35:28;;;;;;;;;44.25;34.00;;;;;18.22;40.47;101058.66;5096982;27;45721;-78
2022/04/26 11:37:56;;;;;;;;;38.00;34.50;;;;;18.02;40.24;101054.19;5099503;27;45498;-80
2022/04/26 11:40:31;;;;;;;;;45.75;33.00;;;;;18.01;40.56;101063.19;5103259;27;45426;-79
2022/04/26 11:42:58;;;;;;;;;43.25;32.00;;;;;17.91;40.50;101050.19;5099132;27;45443;-79
2022/04/26 11:45:28;;;;;;;;;33.50;29.50;;;;;18.49;40.51;101059.22;5099285;27;45674;-80
2022/04/26 11:47:55;;;;;;;;;41.00;31.00;;;;;18.67;39.24;101056.66;5097403;27;45574;-80
2022/04/26 11:50:20;;;;;;;;;34.00;28.75;;;;;18.64;39.54;101055.88;5097240;27;45509;-79
2022/04/26 11:52:47;;;;;;;;;39.50;37.00;;;;;18.48;39.60;101062.88;5096948;27;45484;-80
2022/04/26 11:55:33;;;;;;;;;37.00;31.50;;;;;18.19;40.43;101057.03;5097140;27;45392;-80
2022/04/26 11:58:21;;;;;;;;;36.00;28.50;;;;;18.17;40.80;101064.22;5096993;27;45516;-80
2022/04/26 12:00:51;;;;;;;;;39.50;33.25;;;;;18.07;40.93;101062.91;5095154;27;45389;-80
2022/04/26 12:03:18;;;;;;;;;38.25;32.50;;;;;18.04;40.99;101063.03;5097439;27;45382;-79
2022/04/26 12:05:44;;;;;;;;;29.25;27.00;;;;;18.04;41.01;101063.91;5095484;27;45560;-79
2022/04/26 12:08:12;;;;;;;;;33.25;24.75;;;;;18.00;41.08;101064.09;5097409;27;45531;-79
2022/04/26 12:10:38;;;;;;;;;37.00;34.50;;;;;17.80;41.87;101060.44;5082364;27;45744;-79
2022/04/26 12:13:05;;;;;;;;;29.25;26.25;;;;;17.59;41.96;101068.41;5099427;27;45425;-80
2022/04/26 12:15:35;;;;;;;;;40.50;36.50;;;;;17.38;42.69;101071.97;5097610;27;45405;-80
2022/04/26 12:18:09;;;;;;;;;39.25;32.50;;;;;17.43;42.41;101072.69;5078497;27;45370;-79
2022/04/26 12:20:37;;;;;;;;;28.25;23.75;;;;;17.34;42.22;101065.91;5075696;27;45571;-80
2022/04/26 12:23:05;;;;;;;;;32.50;28.50;;;;;17.44;42.48;101066.38;5076013;27;45647;-79
2022/04/26 12:25:33;;;;;;;;;34.50;28.00;;;;;17.85;41.90;101068.28;5074400;28;45464;-80
2022/04/26 12:28:07;;;;;;;;;31.00;27.75;;;;;18.27;41.33;101068.22;5075885;27;45519;-79
2022/04/26 12:30:37;;;;;;;;;27.00;27.00;;;;;18.47;40.53;101058.44;5075390;27;45453;-80
2022/04/26 12:33:04;;;;;;;;;33.75;27.00;;;;;18.40;40.13;101059.66;5076021;27;45440;-80
2022/04/26 12:35:29;;;;;;;;;36.00;28.00;;;;;18.49;39.91;101053.88;5076214;27;45455;-80
2022/04/26 12:38:08;;;;;;;;;32.75;29.00;;;;;18.26;39.76;101062.94;5077673;28;46034;-79
2022/04/26 12:40:35;;;;;;;;;30.00;26.00;;;;;17.87;40.39;101059.25;5080026;27;45544;-80
2022/04/26 12:43:01;;;;;;;;;35.00;29.50;;;;;17.86;41.37;101060.19;5077467;27;45460;-80
2022/04/26 12:45:27;;;;;;;;;29.50;28.00;;;;;17.78;41.37;101035.59;5089396;27;45531;-80
2022/04/26 12:51:17;;;;;;;;;25.00;23.25;;;;;18.08;41.08;101051.25;5096432;27;45658;-79
2022/04/26 12:53:43;;;;;;;;;37.25;32.75;;;;;17.78;41.43;101056.97;5096706;27;45507;-79
2022/04/26 12:56:10;;;;;;;;;25.25;22.00;;;;;17.59;41.63;101048.84;5095555;27;45469;-80
2022/04/26 12:58:40;;;;;;;;;27.75;25.25;;;;;17.75;42.22;101046.41;5096456;27;46303;-79
2022/04/26 13:01:07;;;;;;;;;37.00;29.00;;;;;18.14;41.32;101050.97;5095582;27;45421;-80
2022/04/26 13:03:34;;;;;;;;;29.75;23.50;;;;;18.40;40.28;101038.25;5094536;27;45476;-79
2022/04/26 13:06:19;;;;;;;;;30.25;25.00;;;;;18.33;40.35;101045.69;5099626;27;45439;-80
2022/04/26 13:08:48;;;;;;;;;34.00;25.00;;;;;18.34;40.09;101034.06;5102985;27;45381;-80
2022/04/26 13:11:17;;;;;;;;;25.25;24.75;;;;;18.32;39.57;101040.41;5100437;27;45407;-80
2022/04/26 13:13:46;;;;;;;;;25.75;22.50;;;;;18.10;39.70;101044.06;5095551;27;45383;-82
2022/04/26 13:16:11;;;;;;;;;24.75;19.75;;;;;18.11;39.48;101048.44;5091814;27;45640;-80
2022/04/26 13:18:38;;;;;;;;;29.00;25.75;;;;;17.87;40.00;101037.88;5074945;27;45434;-79
2022/04/26 13:21:04;;;;;;;;;29.50;24.00;;;;;17.89;40.06;101040.50;5075139;28;45304;-80
2022/04/26 13:23:32;;;;;;;;;25.25;22.00;;;;;18.02;39.83;101043.50;5074971;27;45417;-79
2022/04/26 13:25:58;;;;;;;;;20.75;17.75;;;;;18.04;40.04;101036.31;5073740;28;45478;-80
2022/04/26 13:28:24;;;;;;;;;25.00;21.75;;;;;18.04;39.79;101037.16;5074996;27;45848;-79
2022/04/26 13:30:50;;;;;;;;;30.75;25.75;;;;;17.92;40.19;101033.22;5074063;28;46001;-78
2022/04/26 13:33:15;;;;;;;;;25.75;23.00;;;;;17.86;40.22;101038.78;5076644;27;45564;-79
2022/04/26 13:35:41;;;;;;;;;30.25;28.75;;;;;17.77;40.08;101028.50;5088067;27;45376;-80
2022/04/26 13:38:10;;;;;;;;;24.50;23.50;;;;;17.77;40.47;101028.50;5097032;27;46122;-78
2022/04/26 13:40:37;;;;;;;;;20.75;19.00;;;;;17.87;40.47;101034.31;5100748;27;45468;-79
2022/04/26 13:43:04;;;;;;;;;19.00;16.25;;;;;17.88;40.31;101026.22;5097662;27;45489;-79
2022/04/26 13:45:29;;;;;;;;;17.50;17.50;;;;;17.89;40.10;101027.13;5095339;27;45578;-79
2022/04/26 13:47:55;;;;;;;;;25.25;19.50;;;;;17.91;40.67;101031.47;5093183;27;45465;-80
2022/04/26 13:50:20;;;;;;;;;22.75;22.75;;;;;17.84;40.39;101021.06;5094927;27;45352;-79
2022/04/26 13:52:46;;;;;;;;;17.00;16.50;;;;;17.90;40.31;101019.06;5094866;27;45400;-80
2022/04/26 13:55:15;;;;;;;;;16.50;16.50;;;;;17.71;39.39;101012.72;5094669;27;45418;-78
2022/04/26 13:57:41;;;;;;;;;14.75;14.75;;;;;17.54;40.03;101016.13;5095142;27;45349;-79
2022/04/26 14:00:07;;;;;;;;;18.00;18.00;;;;;17.75;39.93;101014.34;5095917;27;45598;-80
2022/04/26 14:02:35;;;;;;;;;17.00;13.25;;;;;17.94;39.97;101014.44;5095736;27;45379;-80
2022/04/26 14:05:00;;;;;;;;;19.00;17.75;;;;;17.98;39.78;101020.53;5094985;27;45786;-80
2022/04/26 14:07:25;;;;;;;;;19.00;17.50;;;;;17.85;39.25;101014.78;5096408;27;45974;-80
2022/04/26 14:09:51;;;;;;;;;18.00;15.50;;;;;17.63;39.49;101014.84;5098497;27;45250;-78
2022/04/26 14:12:18;;;;;;;;;22.75;16.75;;;;;17.54;40.35;101006.28;5098593;27;45326;-79
2022/04/26 14:22:55;;;;;;;;;28.25;21.75;;;;;17.92;40.13;100997.59;5093864;27;45392;-78
2022/04/26 14:25:21;;;;;;;;;23.50;21.00;;;;;17.80;39.96;101000.78;5094234;27;45590;-77
2022/04/26 14:27:49;;;;;;;;;19.25;18.00;;;;;17.75;40.17;100985.78;5094725;27;45404;-77
2022/04/26 14:30:15;;;;;;;;;22.75;18.75;;;;;17.72;40.31;101001.97;5098024;27;45416;-79
2022/04/26 14:32:41;;;;;;;;;19.00;17.50;;;;;17.67;40.47;101003.97;5098714;27;45422;-80
2022/04/26 14:35:07;;;;;;;;;18.00;16.50;;;;;17.76;40.43;101005.38;5099013;27;45588;-79
2022/04/26 14:37:35;;;;;;;;;18.00;18.00;;;;;17.77;40.35;101007.13;5100880;27;46005;-80
2022/04/26 14:40:01;;;;;;;;;17.75;17.75;;;;;17.71;41.02;101002.03;5102682;27;45419;-79
2022/04/26 14:42:28;;;;;;;;;22.75;19.00;;;;;17.61;41.03;101004.22;5103765;27;45395;-80
2022/04/26 14:44:55;;;;;;;;;21.50;20.00;;;;;17.59;41.20;101003.41;5099185;27;45575;-79
2022/04/26 14:47:20;;;;;;;;;21.75;19.00;;;;;17.52;40.93;100994.81;5098180;27;45461;-81
2022/04/26 14:49:46;;;;;;;;;18.00;15.25;;;;;17.52;40.83;101002.81;5097525;27;45488;-78
2022/04/26 14:52:16;;;;;;;;;18.50;14.50;;;;;17.54;40.56;101006.28;5097514;27;45315;-78
2022/04/26 14:54:42;;;;;;;;;21.00;18.00;;;;;17.61;40.70;101006.03;5096927;27;45305;-78
2022/04/26 14:57:07;;;;;;;;;21.75;20.00;;;;;17.42;40.52;100996.13;5097345;27;45387;-77
2022/04/26 14:59:33;;;;;;;;;16.25;12.00;;;;;17.54;40.98;101000.94;5097079;27;45376;-77
2022/04/26 15:01:58;;;;;;;;;20.50;17.25;;;;;17.51;40.88;101001.06;5097994;27;45457;-78
2022/04/26 15:04:25;;;;;;;;;20.00;18.25;;;;;17.45;40.33;101005.81;5098328;27;45618;-78
2022/04/26 15:06:51;;;;;;;;;21.00;15.00;;;;;17.44;40.92;101004.94;5096618;27;46884;-78
2022/04/26 15:17:30;;;;;;;;;21.50;15.50;;;;;17.24;39.92;101008.44;5083502;27;45413;-79
2022/04/26 15:19:56;;;;;;;;;17.50;13.00;;;;;17.17;40.13;101004.25;5078520;27;45392;-79
2022/04/26 15:22:22;;;;;;;;;14.00;11.75;;;;;17.19;39.76;101002.44;5078418;27;45598;-80
2022/04/26 15:24:53;;;;;;;;;15.00;11.50;;;;;17.34;39.71;101000.91;5077336;27;45414;-78
2022/04/26 15:27:20;;;;;;;;;11.25;11.25;;;;;17.43;39.58;100992.53;5077598;27;45378;-79
2022/04/26 15:29:46;;;;;;;;;11.75;11.75;;;;;17.48;39.84;101003.88;5076648;27;45409;-79
2022/04/26 15:32:12;;;;;;;;;15.75;11.25;;;;;17.62;39.77;100994.41;5077149;28;45501;-79
2022/04/26 15:34:38;;;;;;;;;12.50;11.25;;;;;17.53;38.77;100999.19;5076472;27;45580;-77